Time;durP1;ratioP1;P1;durP2;ratioP2;P2;SDS_P1;SDS_P2;PMS_P1;PMS_P2;Temp;Humidity;BMP_temperature;BMP_pressure;BME280_temperature;BME280_humidity;BME280_pressure;Samples;Min_cycle;Max_cycle;Signal;HPM_P1;HPM_P2
2022/09/26 00:01:58;;;;;;;5.10;4.60;;;;;;;11.40;100.00;99350.11;1684741;83;21098;-48
2022/09/26 00:04:26;;;;;;;4.15;3.85;;;;;;;11.41;100.00;99346.94;1679443;83;21635;-48
2022/09/26 00:06:55;;;;;;;4.12;3.62;;;;;;;11.41;100.00;99351.84;1680676;83;21540;-48
2022/09/26 00:09:22;;;;;;;4.97;3.17;;;;;;;11.42;100.00;99353.59;1675826;83;21666;-48
2022/09/26 00:11:49;;;;;;;3.75;3.42;;;;;;;11.41;100.00;99348.28;1678985;83;21877;-48
2022/09/26 00:14:23;;;;;;;5.47;3.60;;;;;;;11.42;100.00;99350.02;1686682;83;21557;-48
2022/09/26 00:16:50;;;;;;;3.77;3.33;;;;;;;11.38;100.00;99343.48;1675537;83;22551;-48
2022/09/26 00:19:16;;;;;;;4.33;2.45;;;;;;;11.40;100.00;99349.27;1679245;83;21057;-51
2022/09/26 00:21:43;;;;;;;3.77;2.83;;;;;;;11.41;100.00;99348.28;1697848;82;21085;-48
2022/09/26 00:24:09;;;;;;;5.08;3.17;;;;;;;11.41;100.00;99350.98;1707355;82;22003;-48
2022/09/26 00:26:37;;;;;;;2.90;2.70;;;;;;;11.42;100.00;99351.38;1699296;82;21542;-48
2022/09/26 00:29:06;;;;;;;4.15;3.75;;;;;;;11.42;100.00;99355.41;1705017;82;21568;-48
2022/09/26 00:31:37;;;;;;;3.52;3.22;;;;;;;11.43;100.00;99357.16;1701611;82;21058;-48
2022/09/26 00:34:04;;;;;;;7.42;3.92;;;;;;;11.41;100.00;99357.72;1703271;82;21096;-48
2022/09/26 00:36:32;;;;;;;4.62;3.08;;;;;;;11.37;100.00;99352.52;1698880;82;22753;-48
2022/09/26 00:38:58;;;;;;;3.17;2.90;;;;;;;11.34;100.00;99359.42;1705456;82;21405;-48
2022/09/26 00:41:25;;;;;;;3.72;2.95;;;;;;;11.33;100.00;99351.42;1678130;82;21098;-48
2022/09/26 00:43:53;;;;;;;3.90;3.17;;;;;;;11.32;100.00;99358.64;1703425;82;21055;-48
2022/09/26 00:46:33;;;;;;;2.72;2.50;;;;;;;11.32;100.00;99353.72;1697180;82;21083;-48
2022/09/26 00:49:08;;;;;;;2.33;1.95;;;;;;;11.31;100.00;99350.67;1700749;82;21761;-49
2022/09/26 00:51:36;;;;;;;;;;;;;;;11.31;100.00;99342.59;1704472;82;21578;-48
2022/09/26 00:54:02;;;;;;;2.62;2.42;;;;;;;11.31;100.00;99341.23;1702065;82;20180;-48
2022/09/26 00:56:32;;;;;;;3.80;3.02;;;;;;;11.31;100.00;99337.20;1704492;82;21372;-48
2022/09/26 00:59:08;;;;;;;3.50;3.20;;;;;;;11.32;100.00;99332.17;1704628;82;21055;-48
2022/09/26 01:01:35;;;;;;;2.77;2.52;;;;;;;11.33;100.00;99331.22;1679977;82;21850;-48
2022/09/26 01:04:03;;;;;;;4.03;2.95;;;;;;;11.33;100.00;99328.05;1701289;82;21085;-48
2022/09/26 01:06:29;;;;;;;2.58;2.37;;;;;;;11.32;100.00;99326.78;1700490;82;21060;-48
2022/09/26 01:08:59;;;;;;;3.05;2.67;;;;;;;11.32;100.00;99324.95;1677519;82;21718;-48
2022/09/26 01:11:27;;;;;;;5.72;2.60;;;;;;;11.32;100.00;99326.30;1708380;82;21062;-48
2022/09/26 01:13:55;;;;;;;3.25;2.95;;;;;;;11.33;100.00;99322.66;1700134;82;21794;-49
2022/09/26 01:16:23;;;;;;;3.70;3.02;;;;;;;11.33;100.00;99324.48;1663041;83;21552;-48
2022/09/26 01:18:50;;;;;;;4.03;3.30;;;;;;;11.33;100.00;99329.87;1706112;82;21065;-48
2022/09/26 01:21:37;;;;;;;2.47;2.27;;;;;;;11.30;100.00;99326.02;1702159;82;21038;-48
2022/09/26 01:24:36;;;;;;;2.45;2.25;;;;;;;11.27;100.00;99324.37;1698053;82;21627;-48
2022/09/26 01:27:11;;;;;;;3.83;2.52;;;;;;;11.27;100.00;99326.19;1706966;82;21836;-49
2022/09/26 01:30:01;;;;;;;2.37;2.22;;;;;;;11.25;100.00;99330.31;1706123;82;21046;-49
2022/09/26 01:33:09;;;;;;;8.65;2.35;;;;;;;11.23;100.00;99334.91;1703984;82;21100;-49
2022/09/26 01:35:50;;;;;;;2.52;2.17;;;;;;;11.21;100.00;99338.20;1701689;82;21071;-48
2022/09/26 01:38:45;;;;;;;4.20;2.10;;;;;;;11.19;100.00;99345.97;1705036;82;21083;-49
2022/09/26 01:41:43;;;;;;;;;;;;;;;11.19;100.00;99345.49;1704041;82;21792;-49
2022/09/26 01:44:30;;;;;;;1.87;1.37;;;;;;;11.19;100.00;99345.49;1654862;84;20211;-49
2022/09/26 01:47:11;;;;;;;2.50;2.30;;;;;;;11.19;100.00;99340.11;1637867;84;21583;-49
2022/09/26 01:49:48;;;;;;;5.42;3.45;;;;;;;11.18;100.00;99350.48;1655818;83;20983;-49
2022/09/26 01:52:37;;;;;;;3.98;3.05;;;;;;;11.18;100.00;99349.14;1699716;82;21055;-49
2022/09/26 01:55:11;;;;;;;3.30;2.75;;;;;;;11.18;100.00;99339.71;1704653;82;23073;-49
2022/09/26 01:57:55;;;;;;;3.58;3.15;;;;;;;11.17;100.00;99340.66;1705481;82;21034;-49
2022/09/26 02:00:21;;;;;;;2.42;2.22;;;;;;;11.14;100.00;99334.12;1706843;82;20983;-48
2022/09/26 02:02:49;;;;;;;2.70;2.50;;;;;;;11.14;100.00;99335.47;1704044;82;21006;-49
2022/09/26 02:05:29;;;;;;;3.65;2.52;;;;;;;11.13;100.00;99328.34;1704212;82;21061;-49
2022/09/26 02:08:16;;;;;;;2.08;1.98;;;;;;;11.14;100.00;99333.25;1703249;82;21816;-49
2022/09/26 02:10:58;;;;;;;2.30;1.90;;;;;;;11.13;100.00;99335.08;1701178;82;20979;-49
2022/09/26 02:13:29;;;;;;;3.15;1.82;;;;;;;11.14;100.00;99333.25;1704574;82;21417;-49
2022/09/26 02:15:59;;;;;;;3.80;2.20;;;;;;;11.13;100.00;99335.55;1702470;82;21021;-48
2022/09/26 02:18:34;;;;;;;3.40;2.12;;;;;;;11.12;100.00;99334.69;1704852;82;21489;-50
2022/09/26 02:21:18;;;;;;;5.85;1.95;;;;;;;11.13;100.00;99337.77;1703578;82;21765;-48
2022/09/26 02:23:46;;;;;;;3.15;1.57;;;;;;;11.14;100.00;99332.78;1703596;82;21371;-49
2022/09/26 02:26:13;;;;;;;6.17;1.70;;;;;;;11.15;100.00;99333.61;1682021;82;21068;-49
2022/09/26 02:28:41;;;;;;;1.52;1.42;;;;;;;11.15;100.00;99328.23;1708693;82;22370;-49
2022/09/26 02:31:08;;;;;;;3.50;1.90;;;;;;;11.17;100.00;99327.67;1677947;83;21553;-48
2022/09/26 02:38:06;;;;;;;2.92;2.30;;;;;;;11.20;100.00;99315.38;1774724;78;21567;-49
2022/09/26 02:40:52;;;;;;;2.92;2.12;;;;;;;11.20;100.00;99318.08;1772086;79;23329;-49
2022/09/26 02:43:52;;;;;;;2.30;1.98;;;;;;;11.21;100.00;99318.47;1775449;79;21505;-48
2022/09/26 02:46:25;;;;;;;2.08;1.45;;;;;;;11.20;100.00;99313.56;1766922;78;21026;-48
2022/09/26 02:49:25;;;;;;;4.53;1.98;;;;;;;11.19;100.00;99310.47;1703081;81;21132;-48
2022/09/26 02:52:42;;;;;;;2.08;1.50;;;;;;;11.18;100.00;99302.00;1713160;81;21076;-49
2022/09/26 02:55:34;;;;;;;1.50;1.37;;;;;;;11.17;100.00;99306.12;1705897;82;21797;-48
2022/09/26 02:58:22;;;;;;;1.57;1.47;;;;;;;11.16;100.00;99299.86;1709756;81;21175;-51
2022/09/26 03:01:16;;;;;;;4.10;1.55;;;;;;;11.14;100.00;99299.58;1695059;83;21448;-50
2022/09/26 03:04:00;;;;;;;2.72;1.95;;;;;;;11.13;100.00;99293.80;1708975;81;21515;-51
2022/09/26 03:06:31;;;;;;;1.95;1.25;;;;;;;11.13;100.00;99284.37;1704482;82;21137;-51
2022/09/26 03:08:58;;;;;;;2.17;1.90;;;;;;;11.13;100.00;99283.90;1707673;81;21873;-50
2022/09/26 03:11:25;;;;;;;1.77;1.52;;;;;;;11.14;100.00;99270.82;1707163;81;21029;-51
2022/09/26 03:13:52;;;;;;;3.17;1.60;;;;;;;11.13;100.00;99271.77;1681476;83;21807;-50
2022/09/26 03:16:20;;;;;;;3.27;1.20;;;;;;;11.14;100.00;99271.30;1694191;83;21061;-50
2022/09/26 03:19:01;;;;;;;1.70;1.60;;;;;;;11.14;100.00;99279.38;1698493;82;21346;-51
2022/09/26 03:21:28;;;;;;;1.62;1.52;;;;;;;11.14;100.00;99284.77;1695235;82;21926;-50
2022/09/26 03:23:56;;;;;;;3.15;1.50;;;;;;;11.14;100.00;99278.91;1676709;82;21124;-50
2022/09/26 03:26:23;;;;;;;1.95;1.85;;;;;;;11.15;100.00;99281.95;1694547;82;21160;-51
2022/09/26 03:28:52;;;;;;;4.67;1.77;;;;;;;11.13;100.00;99282.55;1676348;83;21393;-51
2022/09/26 03:31:21;;;;;;;3.30;1.80;;;;;;;11.14;100.00;99280.73;1696607;83;21141;-50
2022/09/26 03:33:52;;;;;;;3.50;1.60;;;;;;;11.14;100.00;99295.55;1691140;82;21937;-51
2022/09/26 03:36:21;;;;;;;1.30;1.15;;;;;;;11.14;100.00;99300.45;1690083;84;21056;-50
2022/09/26 03:38:47;;;;;;;2.27;1.50;;;;;;;11.13;100.00;99282.55;1686919;83;21064;-49
2022/09/26 03:41:15;;;;;;;1.37;1.27;;;;;;;11.12;100.00;99287.55;1684115;83;21097;-48
2022/09/26 03:43:59;;;;;;;1.25;1.15;;;;;;;11.13;100.00;99291.11;1688965;84;21084;-49
2022/09/26 03:46:28;;;;;;;2.87;1.40;;;;;;;11.12;100.00;99282.63;1687309;84;21417;-49
2022/09/26 03:48:55;;;;;;;1.92;1.40;;;;;;;11.12;100.00;99277.25;1690756;84;21705;-48
2022/09/26 03:51:21;;;;;;;3.92;1.60;;;;;;;11.13;100.00;99275.81;1661384;84;21070;-49
2022/09/26 03:53:48;;;;;;;2.15;1.42;;;;;;;11.15;100.00;99282.44;1690457;83;21049;-49
2022/09/26 03:56:17;;;;;;;3.42;1.35;;;;;;;11.15;100.00;99282.44;1691014;83;21823;-49
2022/09/26 03:58:43;;;;;;;3.55;1.20;;;;;;;11.17;100.00;99287.27;1688765;83;22432;-49
2022/09/26 04:01:13;;;;;;;1.52;1.32;;;;;;;11.17;100.00;99287.27;1684037;84;21547;-51
2022/09/26 04:03:41;;;;;;;1.40;1.30;;;;;;;11.17;100.00;99283.22;1682395;83;21122;-51
2022/09/26 04:06:08;;;;;;;2.55;1.10;;;;;;;11.16;100.00;99283.70;1686925;84;21082;-52
2022/09/26 04:08:40;;;;;;;1.30;1.20;;;;;;;11.18;100.00;99284.48;1688780;83;21092;-50
2022/09/26 04:11:11;;;;;;;1.90;1.80;;;;;;;11.18;100.00;99287.18;1688304;83;21788;-49
2022/09/26 04:13:37;;;;;;;3.85;1.77;;;;;;;11.18;100.00;99284.48;1656815;84;21077;-49
2022/09/26 04:16:05;;;;;;;4.35;1.65;;;;;;;11.18;100.00;99279.58;1713669;81;22148;-50
2022/09/26 04:18:32;;;;;;;2.25;1.92;;;;;;;11.18;100.00;99280.45;1719572;80;21145;-51
2022/09/26 04:21:04;;;;;;;1.92;1.82;;;;;;;11.18;100.00;99282.27;1721082;80;21575;-47
2022/09/26 04:23:33;;;;;;;1.80;1.70;;;;;;;11.17;100.00;99271.97;1715305;80;22227;-49
2022/09/26 04:26:14;;;;;;;4.30;2.08;;;;;;;11.17;100.00;99277.83;1724528;80;21065;-46
2022/09/26 04:28:40;;;;;;;1.85;1.75;;;;;;;11.15;100.00;99279.73;1716738;81;21107;-48
2022/09/26 04:31:09;;;;;;;3.55;1.82;;;;;;;11.14;100.00;99278.03;1714163;81;21151;-47
2022/09/26 04:33:38;;;;;;;2.98;2.08;;;;;;;11.13;100.00;99280.33;1714509;81;21149;-49
2022/09/26 04:36:10;;;;;;;1.67;1.57;;;;;;;11.13;100.00;99273.60;1714665;81;22668;-47
2022/09/26 04:38:38;;;;;;;2.75;2.42;;;;;;;11.13;100.00;99278.98;1711467;81;21038;-47
2022/09/26 04:41:07;;;;;;;7.92;2.67;;;;;;;11.13;100.00;99269.08;1697343;83;21611;-47
2022/09/26 04:43:34;;;;;;;2.00;1.90;;;;;;;11.13;100.00;99268.21;1714171;81;21072;-47
2022/09/26 04:46:03;;;;;;;2.62;2.42;;;;;;;11.14;100.00;99269.95;1712316;80;21065;-45
2022/09/26 04:48:29;;;;;;;4.50;2.55;;;;;;;11.14;100.00;99260.05;1716020;81;21949;-49
2022/09/26 04:50:58;;;;;;;6.85;3.37;;;;;;;11.16;100.00;99263.50;1719846;81;20999;-46
2022/09/26 04:53:25;;;;;;;3.95;2.30;;;;;;;11.16;100.00;99264.84;1720859;81;21016;-49
2022/09/26 04:56:02;;;;;;;4.33;4.03;;;;;;;11.17;100.00;99267.92;1721863;81;21032;-48
2022/09/26 04:58:30;;;;;;;2.75;2.52;;;;;;;11.17;100.00;99264.36;1719444;81;21003;-46
2022/09/26 05:01:05;;;;;;;4.70;2.72;;;;;;;11.14;100.00;99257.83;1721836;81;21123;-47
2022/09/26 05:03:35;;;;;;;3.00;2.72;;;;;;;11.11;100.00;99250.78;1718876;81;20992;-47
2022/09/26 05:06:04;;;;;;;4.30;2.80;;;;;;;11.10;100.00;99249.52;1718225;81;20996;-46
2022/09/26 05:08:30;;;;;;;4.17;3.22;;;;;;;11.09;100.00;99245.09;1719515;80;21515;-48
2022/09/26 05:10:57;;;;;;;2.35;2.15;;;;;;;11.10;100.00;99256.26;1717566;80;21003;-47
2022/09/26 05:13:24;;;;;;;1.87;1.77;;;;;;;11.10;100.00;99265.20;1716056;80;21888;-49
2022/09/26 05:15:54;;;;;;;1.95;1.82;;;;;;;11.10;100.00;99265.20;1717135;80;21431;-48
2022/09/26 05:18:25;;;;;;;2.62;1.92;;;;;;;11.12;100.00;99270.03;1716410;80;21512;-45
2022/09/26 05:20:52;;;;;;;2.12;1.50;;;;;;;11.13;100.00;99265.04;1694848;81;21010;-45
2022/09/26 05:26:23;;;;;;;2.25;1.90;;;;;;;11.17;100.00;99265.23;1722180;80;21816;-45
2022/09/26 05:28:55;;;;;;;2.22;2.02;;;;;;;11.21;100.00;99264.11;1719853;80;21690;-46
2022/09/26 05:31:25;;;;;;;2.60;2.40;;;;;;;11.22;100.00;99260.47;1715563;80;21031;-45
2022/09/26 05:33:51;;;;;;;4.33;2.80;;;;;;;11.22;100.00;99249.69;1716712;81;21119;-47
2022/09/26 05:36:18;;;;;;;2.70;2.33;;;;;;;11.22;100.00;99251.04;1708182;82;21038;-47
2022/09/26 05:38:45;;;;;;;2.22;2.02;;;;;;;11.22;100.00;99247.00;1710587;82;22909;-47
2022/09/26 05:41:12;;;;;;;1.82;1.65;;;;;;;11.22;100.00;99251.04;1708901;82;21150;-48
2022/09/26 05:43:39;;;;;;;1.95;1.70;;;;;;;11.22;100.00;99248.82;1704688;82;21042;-47
2022/09/26 05:46:09;;;;;;;3.25;1.82;;;;;;;11.21;100.00;99245.26;1712106;82;21073;-47
2022/09/26 05:48:38;;;;;;;1.50;1.40;;;;;;;11.21;100.00;99243.91;1711230;82;21078;-47
2022/09/26 05:51:12;;;;;;;1.65;1.40;;;;;;;11.22;100.00;99236.22;1679909;82;21921;-49
2022/09/26 05:53:41;;;;;;;1.57;1.47;;;;;;;11.24;100.00;99241.49;1709263;82;21566;-47
2022/09/26 05:56:08;;;;;;;1.67;1.25;;;;;;;11.24;100.00;99231.58;1691796;82;21113;-49
2022/09/26 05:58:50;;;;;;;1.40;1.10;;;;;;;11.27;100.00;99234.11;1711458;82;21097;-47
2022/09/26 06:01:17;;;;;;;1.27;1.17;;;;;;;11.28;100.00;99231.81;1709724;82;21122;-47
2022/09/26 06:03:45;;;;;;;1.30;1.17;;;;;;;11.30;100.00;99240.67;1704294;82;22683;-45
2022/09/26 06:06:16;;;;;;;4.22;1.12;;;;;;;11.31;100.00;99235.65;1711468;82;22264;-46
2022/09/26 06:08:44;;;;;;;2.50;1.25;;;;;;;11.33;100.00;99235.08;1689419;82;21046;-46
2022/09/26 06:11:15;;;;;;;3.40;1.17;;;;;;;11.34;100.00;99247.60;1674073;82;21116;-47
2022/09/26 06:13:44;;;;;;;2.30;1.25;;;;;;;11.40;100.00;99264.38;1704160;82;21074;-47
2022/09/26 06:16:18;;;;;;;3.98;1.12;;;;;;;11.40;100.00;99264.38;1706642;82;21835;-47
2022/09/26 06:18:49;;;;;;;2.35;1.37;;;;;;;11.40;100.00;99259.83;1706095;82;21042;-46
2022/09/26 06:21:17;;;;;;;1.70;1.45;;;;;;;11.40;100.00;99265.73;1707988;82;21642;-46
2022/09/26 06:23:46;;;;;;;3.08;1.40;;;;;;;11.39;100.00;99263.52;1707293;82;21078;-47
2022/09/26 06:26:19;;;;;;;2.15;1.82;;;;;;;11.39;100.00;99263.52;1709835;82;21111;-50
2022/09/26 06:28:47;;;;;;;1.95;1.35;;;;;;;11.41;100.00;99271.48;1686719;83;22512;-46
2022/09/26 06:31:16;;;;;;;1.10;1.00;;;;;;;11.40;100.00;99275.16;1684744;82;21409;-47
2022/09/26 06:34:01;;;;;;;1.40;1.30;;;;;;;11.42;100.00;99273.22;1703483;82;21098;-46
2022/09/26 06:36:46;;;;;;;3.45;1.25;;;;;;;11.43;100.00;99261.48;1705522;82;21085;-46
2022/09/26 06:39:13;;;;;;;2.40;1.00;;;;;;;11.44;100.00;99262.75;1707930;82;21720;-46
2022/09/26 06:41:40;;;;;;;1.75;1.25;;;;;;;11.46;100.00;99262.66;1706325;82;21830;-47
2022/09/26 06:44:24;;;;;;;;;;;;;;;11.46;100.00;99262.66;1709917;82;21358;-47
2022/09/26 06:46:52;;;;;;;5.12;2.12;;;;;;;11.46;100.00;99255.45;1704326;82;20792;-46
2022/09/26 06:49:21;;;;;;;3.35;1.95;;;;;;;11.47;100.00;99266.63;1705728;82;21082;-48
2022/09/26 06:51:49;;;;;;;6.85;2.87;;;;;;;11.48;100.00;99274.23;1706750;82;21112;-47
2022/09/26 06:54:16;;;;;;;3.17;2.00;;;;;;;11.49;100.00;99274.11;1705665;82;22464;-47
2022/09/26 06:56:43;;;;;;;1.92;1.80;;;;;;;11.50;100.00;99266.89;1704970;82;21535;-47
2022/09/26 06:59:10;;;;;;;5.67;2.50;;;;;;;11.53;100.00;99270.77;1709117;82;21061;-47
2022/09/26 07:01:38;;;;;;;1.80;1.52;;;;;;;11.56;100.00;99275.51;1705428;82;21582;-50
2022/09/26 07:04:09;;;;;;;1.98;1.85;;;;;;;11.58;100.00;99270.00;1707238;82;21543;-46
2022/09/26 07:06:53;;;;;;;1.40;1.30;;;;;;;11.61;100.00;99271.17;1707673;82;21832;-46
2022/09/26 07:09:22;;;;;;;2.27;2.08;;;;;;;11.64;100.00;99269.66;1709182;82;21327;-50
2022/09/26 07:11:54;;;;;;;2.75;1.57;;;;;;;11.66;100.00;99265.02;1707806;82;21050;-47
2022/09/26 07:14:21;;;;;;;4.47;1.98;;;;;;;11.70;100.00;99264.75;1711486;82;21046;-49
2022/09/26 07:16:50;;;;;;;2.12;1.95;;;;;;;11.75;100.00;99265.84;1712726;82;21043;-48
2022/09/26 07:19:25;;;;;;;2.58;2.17;;;;;;;11.78;100.00;99258.92;1700790;82;21812;-47
2022/09/26 07:21:56;;;;;;;2.58;2.10;;;;;;;11.84;100.00;99254.97;1707089;82;21058;-47
2022/09/26 07:24:26;;;;;;;3.05;1.90;;;;;;;11.86;100.00;99253.93;1709152;82;21085;-50
2022/09/26 07:26:52;;;;;;;1.82;1.65;;;;;;;11.88;100.00;99255.19;1716550;82;21464;-48
2022/09/26 07:29:19;;;;;;;2.80;2.20;;;;;;;11.89;100.00;99256.45;1704966;82;21064;-47
2022/09/26 07:31:45;;;;;;;3.42;2.25;;;;;;;11.93;100.00;99251.23;1687546;82;22351;-51
2022/09/26 07:51:43;;;;;;;4.45;3.22;;;;;;;12.70;100.00;99244.08;1822303;77;21946;-48
2022/09/26 07:54:11;;;;;;;3.60;3.30;;;;;;;12.73;100.00;99246.59;1822433;77;21080;-46
2022/09/26 07:56:46;;;;;;;4.58;3.42;;;;;;;12.76;100.00;99251.77;1771257;77;21069;-49
2022/09/26 07:59:21;;;;;;;7.40;3.62;;;;;;;12.78;100.00;99246.27;1743226;80;21722;-46
2022/09/26 08:01:53;;;;;;;5.20;3.25;;;;;;;12.80;100.00;99246.56;1743669;80;21108;-45
2022/09/26 08:04:36;;;;;;;3.77;3.37;;;;;;;12.80;100.00;99238.95;1747161;80;21961;-48
2022/09/26 08:07:28;;;;;;;4.83;3.70;;;;;;;12.82;100.00;99231.62;1758439;79;26279;-47
2022/09/26 08:10:01;;;;;;;5.22;3.67;;;;;;;12.82;100.00;99242.42;1740728;80;21077;-49
2022/09/26 08:12:46;;;;;;;4.92;3.80;;;;;;;12.84;100.00;99234.58;1741440;80;21865;-49
2022/09/26 08:15:20;;;;;;;5.72;4.42;;;;;;;12.86;100.00;99234.48;1740518;80;21681;-49
2022/09/26 08:17:48;;;;;;;4.53;3.75;;;;;;;12.86;100.00;99234.00;1739445;80;21520;-48
2022/09/26 08:20:14;;;;;;;7.47;3.30;;;;;;;12.85;100.00;99233.61;1748107;80;21090;-47
2022/09/26 08:22:41;;;;;;;4.97;3.25;;;;;;;12.87;100.00;99229.47;1715397;80;21654;-47
2022/09/26 08:25:08;;;;;;;4.35;2.50;;;;;;;12.89;100.00;99215.39;1743803;80;21982;-50
2022/09/26 08:27:43;;;;;;;5.33;2.47;;;;;;;12.94;100.00;99219.12;1711504;80;21026;-48
2022/09/26 08:30:12;;;;;;;4.50;2.65;;;;;;;13.00;100.00;99216.03;1685244;83;21049;-46
2022/09/26 08:32:39;;;;;;;4.15;3.15;;;;;;;13.05;100.00;99216.09;1709850;81;21070;-49
2022/09/26 08:35:13;;;;;;;3.35;3.05;;;;;;;13.11;100.00;99212.11;1710802;82;21074;-46
2022/09/26 08:37:40;;;;;;;5.00;3.58;;;;;;;13.18;100.00;99218.89;1702319;81;22535;-47
2022/09/26 08:40:28;;;;;;;7.15;3.12;;;;;;;13.25;100.00;99218.86;1668553;84;21121;-46
2022/09/26 08:43:17;;;;;;;4.50;2.90;;;;;;;13.33;100.00;99219.69;1710740;81;21048;-47
2022/09/26 08:49:27;;;;;;;2.70;2.50;;;;;;;13.46;100.00;99219.22;1704366;81;21448;-47
2022/09/26 08:51:56;;;;;;;3.42;1.82;;;;;;;13.52;100.00;99220.17;1699693;82;21860;-47
2022/09/26 08:54:39;;;;;;;4.22;1.80;;;;;;;13.60;100.00;99217.33;1693349;82;21061;-47
2022/09/26 08:57:31;;;;;;;5.30;1.77;;;;;;;13.68;100.00;99216.79;1696907;82;21065;-46
2022/09/26 08:59:57;;;;;;;2.15;1.90;;;;;;;13.77;100.00;99215.28;1680932;83;21796;-47
2022/09/26 09:02:41;;;;;;;6.37;2.52;;;;;;;13.84;100.00;99207.98;1693675;82;21076;-47
2022/09/26 09:05:23;;;;;;;3.12;2.42;;;;;;;13.91;100.00;99209.77;1697337;82;21809;-48
2022/09/26 09:07:52;;;;;;;2.35;2.15;;;;;;;13.96;100.00;99205.75;1696057;82;21053;-45
2022/09/26 09:10:25;;;;;;;3.27;1.95;;;;;;;14.02;100.00;99209.88;1694653;82;21073;-47
2022/09/26 09:13:21;;;;;;;1.82;1.65;;;;;;;14.07;100.00;99207.70;1695887;82;21173;-47
2022/09/26 09:16:26;;;;;;;2.77;1.57;;;;;;;14.13;100.00;99209.09;1659451;82;21389;-48
2022/09/26 09:19:29;;;;;;;1.40;1.30;;;;;;;14.20;100.00;99206.36;1672275;81;22570;-47
2022/09/26 09:22:45;;;;;;;4.33;1.27;;;;;;;14.31;100.00;99205.94;1700670;82;21050;-48
2022/09/26 09:25:32;;;;;;;3.42;1.57;;;;;;;14.44;100.00;99206.45;1679112;83;22173;-48
2022/09/26 09:28:37;;;;;;;3.05;1.17;;;;;;;14.62;100.00;99211.89;1685998;83;21037;-46
2022/09/26 09:31:09;;;;;;;4.87;0.95;;;;;;;14.79;100.00;99212.00;1685187;83;21571;-49
2022/09/26 09:33:52;;;;;;;1.53;1.10;;;;;;;14.96;100.00;99212.48;1714858;82;21961;-46
2022/09/26 09:36:29;;;;;;;1.22;0.93;;;;;;;15.13;100.00;99203.95;1715246;81;21361;-48
2022/09/26 09:39:13;;;;;;;1.52;1.10;;;;;;;15.30;100.00;99206.73;1673050;82;21097;-48
2022/09/26 09:41:49;;;;;;;0.80;0.80;;;;;;;15.45;100.00;99212.83;1710564;81;21656;-47
2022/09/26 09:44:45;;;;;;;1.07;0.85;;;;;;;15.55;100.00;99208.47;1712678;81;28790;-48
2022/09/26 09:47:14;;;;;;;1.00;0.90;;;;;;;15.64;100.00;99205.53;1712676;81;22950;-47
2022/09/26 09:49:42;;;;;;;4.28;2.27;;;;;;;15.73;100.00;99200.27;1710625;81;21053;-47
2022/09/26 09:52:32;;;;;;;5.25;3.67;;;;;;;15.83;100.00;99197.66;1710630;81;21109;-47
2022/09/26 09:55:17;;;;;;;6.22;3.70;;;;;;;15.87;100.00;99194.61;1714227;82;21128;-47
2022/09/26 09:57:58;;;;;;;4.33;2.98;;;;;;;15.89;100.00;99198.56;1711745;82;21061;-45
2022/09/26 10:00:26;;;;;;;4.28;2.20;;;;;;;15.93;100.00;99203.23;1710306;81;21858;-46
2022/09/26 10:03:18;;;;;;;5.90;2.72;;;;;;;15.99;100.00;99194.63;1712397;81;21116;-47
2022/09/26 10:05:50;;;;;;;3.00;2.62;;;;;;;16.05;100.00;99188.71;1687991;83;21026;-45
2022/09/26 10:08:21;;;;;;;2.75;2.47;;;;;;;16.10;100.00;99187.84;1671787;84;21827;-49
2022/09/26 10:11:22;;;;;;;2.15;2.05;;;;;;;16.15;100.00;99188.35;1619780;84;21525;-49
2022/09/26 10:14:05;;;;;;;6.03;2.00;;;;;;;16.21;100.00;99177.86;1695096;82;21847;-46
2022/09/26 10:17:13;;;;;;;3.67;1.37;;;;;;;16.27;100.00;99174.64;1724847;81;21615;-46
2022/09/26 10:19:53;;;;;;;1.75;1.57;;;;;;;16.33;100.00;99165.64;1729622;80;21358;-50
2022/09/26 10:22:36;;;;;;;1.45;1.20;;;;;;;16.40;100.00;99164.16;1725599;81;21109;-49
2022/09/26 10:25:17;;;;;;;1.00;0.80;;;;;;;16.46;100.00;99155.00;1732920;81;21050;-50
2022/09/26 10:27:54;;;;;;;1.05;0.90;;;;;;;16.54;100.00;99149.80;1724158;81;22657;-46
2022/09/26 10:30:28;;;;;;;1.27;0.70;;;;;;;16.66;100.00;99156.63;1730688;80;21066;-50
2022/09/26 10:32:58;;;;;;;1.25;0.75;;;;;;;16.74;100.00;99146.84;1730757;81;21062;-46
2022/09/26 10:35:45;;;;;;;1.85;0.68;;;;;;;16.82;100.00;99143.48;1730247;81;21560;-46
2022/09/26 10:38:21;;;;;;;1.17;0.82;;;;;;;16.89;100.00;99142.84;1731598;81;21058;-48
2022/09/26 10:40:53;;;;;;;1.02;0.70;;;;;;;16.95;100.00;99143.67;1732742;80;21379;-49
2022/09/26 10:43:36;;;;;;;0.88;0.68;;;;;;;17.01;100.00;99137.72;1728697;81;21077;-48
2022/09/26 10:46:14;;;;;;;1.37;0.55;;;;;;;17.09;100.00;99138.95;1727598;80;21049;-49
2022/09/26 10:49:01;;;;;;;1.80;0.53;;;;;;;17.16;100.00;99130.14;1731521;81;21089;-48
2022/09/26 10:51:41;;;;;;;1.10;0.60;;;;;;;17.23;100.00;99135.91;1733182;81;21022;-49
2022/09/26 10:54:15;;;;;;;0.72;0.65;;;;;;;17.30;100.00;99128.95;1731756;80;21796;-46
2022/09/26 10:56:46;;;;;;;1.67;0.70;;;;;;;17.37;100.00;99133.73;1730539;80;21588;-47
2022/09/26 10:59:13;;;;;;;3.00;0.80;;;;;;;17.40;100.00;99125.31;1732794;81;21003;-48
2022/09/26 11:01:43;;;;;;;1.00;0.90;;;;;;;17.41;100.00;99124.82;1733697;80;21453;-47
2022/09/26 11:07:25;;;;;;;1.00;0.90;;;;;;;17.39;100.00;99121.36;1729036;80;21969;-49
2022/09/26 11:09:58;;;;;;;1.55;0.80;;;;;;;17.34;100.00;99127.21;1729842;80;21006;-48
2022/09/26 11:12:34;;;;;;;0.90;0.80;;;;;;;17.29;100.00;99126.72;1698520;81;21576;-47
2022/09/26 11:15:10;;;;;;;2.45;0.90;;;;;;;17.26;100.00;99123.42;1732542;81;20994;-46
2022/09/26 11:17:52;;;;;;;1.10;0.80;;;;;;;17.23;100.00;99120.45;1731809;81;21499;-48
2022/09/26 11:20:49;;;;;;;2.83;0.80;;;;;;;17.20;100.00;99113.05;1730642;80;22414;-50
2022/09/26 11:23:27;;;;;;;5.00;0.80;;;;;;;17.18;100.00;99115.06;1707838;81;21050;-46
2022/09/26 11:26:34;;;;;;;2.95;0.82;;;;;;;17.14;100.00;99113.08;1734273;81;21481;-47
2022/09/26 11:29:51;;;;;;;1.00;0.90;;;;;;;17.12;100.00;99111.48;1728952;81;21051;-49
2022/09/26 11:32:39;;;;;;;1.37;0.90;;;;;;;17.09;100.00;99118.56;1734063;80;21047;-47
2022/09/26 11:35:43;;;;;;;2.08;0.80;;;;;;;17.06;100.00;99114.73;1645262;85;21773;-47
2022/09/26 11:38:29;;;;;;;1.35;0.85;;;;;;;17.05;100.00;99120.66;1715656;81;21326;-46
2022/09/26 11:41:36;;;;;;;2.05;0.90;;;;;;;17.02;100.00;99128.56;1728358;81;21105;-50
2022/09/26 11:44:45;;;;;;;5.75;0.90;;;;;;;17.01;100.00;99126.01;1728478;81;21057;-47
2022/09/26 11:47:56;;;;;;;2.25;0.90;;;;;;;17.00;100.00;99129.71;1719103;81;21045;-48
2022/09/26 11:50:40;;;;;;;1.55;0.80;;;;;;;16.98;100.00;99122.17;1728712;81;22032;-49
2022/09/26 11:54:00;;;;;;;3.02;0.80;;;;;;;16.96;100.00;99122.30;1732369;81;21033;-47
2022/09/26 11:56:56;;;;;;;1.98;0.70;;;;;;;16.97;100.00;99121.31;1695921;82;21074;-48
2022/09/26 12:00:14;;;;;;;0.72;0.70;;;;;;;16.97;100.00;99125.39;1728041;80;21083;-48
2022/09/26 12:03:08;;;;;;;0.82;0.70;;;;;;;16.97;100.00;99125.39;1678087;83;21547;-48
2022/09/26 12:06:16;;;;;;;1.95;0.80;;;;;;;17.00;100.00;99117.48;1676907;83;21495;-46
2022/09/26 12:09:03;;;;;;;0.85;0.70;;;;;;;17.00;100.00;99120.20;1733350;81;21528;-49
2022/09/26 12:11:38;;;;;;;0.65;0.60;;;;;;;17.01;100.00;99121.93;1737864;80;21085;-50
2022/09/26 12:14:34;;;;;;;2.52;0.60;;;;;;;17.00;100.00;99115.63;1739215;80;21555;-47
2022/09/26 12:17:09;;;;;;;;;;;;;;;16.98;100.00;99114.02;1660318;81;21149;-48
2022/09/26 12:19:50;;;;;;;0.60;0.50;;;;;;;16.95;100.00;99109.70;1734839;80;22631;-46
2022/09/26 12:22:28;;;;;;;1.12;0.70;;;;;;;16.96;100.00;99117.36;1679387;81;21326;-47
2022/09/26 12:25:23;;;;;;;0.70;0.60;;;;;;;16.95;100.00;99115.63;1733595;81;21097;-46
2022/09/26 12:28:15;;;;;;;1.20;0.57;;;;;;;16.94;100.00;99116.12;1740547;81;21599;-48
2022/09/26 12:31:13;;;;;;;4.35;0.70;;;;;;;16.94;100.00;99117.97;1736804;81;21531;-46
2022/09/26 12:34:06;;;;;;;1.55;0.70;;;;;;;16.93;100.00;99116.24;1738654;80;21867;-47
2022/09/26 12:36:49;;;;;;;0.93;0.50;;;;;;;16.91;100.00;99112.81;1736162;81;21117;-47
2022/09/26 12:39:44;;;;;;;1.95;0.60;;;;;;;16.90;100.00;99105.16;1736216;81;21037;-49
2022/09/26 12:42:38;;;;;;;1.15;0.60;;;;;;;16.88;100.00;99096.26;1730451;80;21033;-49